Overview Statistics Trail Chart Weather Telemetry Raw packets
 

This is the latest recevied weather packets stored in our database for station/object N5JXS. If no packets are shown the sender has not sent any weather packets the latest 10 day(s).

<< 84 85 86 87 88 89 90 >>
Time Temp. Humidity Pressure Rain* Wind** Luminosity Snow
1788005792 17.22° C 50% 1027.7 hPa 0 mm - 0 W/m² -
1788005487 17.22° C 52% 1027.5 hPa 0 mm - 0 W/m² -
1788005186 17.78° C 47% 1027.5 hPa 0 mm - 0 W/m² -
1788004881 17.78° C 44% 1027.5 hPa 0 mm - 0 W/m² -
1788004580 17.22° C 47% 1027.6 hPa 0 mm - 0 W/m² -
1788004275 16.67° C 50% 1027.3 hPa 0 mm - 0 W/m² -
1788003974 16.67° C 50% 1027.5 hPa 0 mm - 0 W/m² -
1788003672 16.67° C 50% 1027.6 hPa 0 mm - 0 W/m² -
1788003367 16.67° C 52% 1027.7 hPa 0 mm - 0 W/m² -
1788003062 16.67° C 52% 1027.6 hPa 0 mm - 0 W/m² -
1788002762 17.22° C 50% 1027.8 hPa 0 mm - 0 W/m² -
1788002458 16.67° C 50% 1027.6 hPa 0 mm - 0 W/m² -
1788002153 16.11° C 53% 1027.8 hPa 0 mm - 0 W/m² -
1788001848 16.11° C 57% 1027.7 hPa 0 mm - 0 W/m² -
1788001543 15.56° C 56% 1027.7 hPa 0 mm - 0 W/m² -
1788001238 15.56° C 56% 1027.7 hPa 0 mm - 0 W/m² -
1788000938 15.56° C 56% 1027.7 hPa 0 mm - 0 W/m² -
1788000632 15.56° C 57% 1027.7 hPa 0 mm - 0 W/m² -
1788000333 15.56° C 56% 1027.8 hPa 0 mm - 0 W/m² -
1788000027 15.56° C 57% 1027.7 hPa 0 mm - 0 W/m² -
1787999724 15.56° C 55% 1027.8 hPa 0 mm - 0 W/m² -
1787999422 16.11° C 55% 1028 hPa 0 mm - 0 W/m² -
1787999120 16.11° C 57% 1027.8 hPa 0 mm - 0 W/m² -
1787998815 16.11° C 55% 1027.7 hPa 0 mm - 0 W/m² -
1787998514 16.11° C 55% 1027.7 hPa 0 mm - 0 W/m² -

* Rain latest hour (hover to see other rain measurements)
** Current wind speed in m/s (hover to see current wind gust speed)